createdAt,value
2023-01-23T00:00:01.023Z,72.5
2023-01-23T00:05:01.764Z,72.0
2023-01-23T00:10:00.639Z,72.2
2023-01-23T00:15:00.642Z,72.1
2023-01-23T00:20:00.606Z,71.8
2023-01-23T00:25:00.663Z,71.7
2023-01-23T00:30:00.648Z,72.0
2023-01-23T00:35:00.668Z,71.9
2023-01-23T00:40:00.619Z,71.5
2023-01-23T00:45:00.669Z,72.1
2023-01-23T00:50:00.637Z,72.8
2023-01-23T00:55:00.662Z,72.0
2023-01-23T01:00:00.655Z,72.8
2023-01-23T01:05:00.658Z,73.3
2023-01-23T01:10:00.803Z,74.0
2023-01-23T01:15:00.619Z,73.5
2023-01-23T01:20:00.655Z,73.6
2023-01-23T01:25:00.626Z,74.2
2023-01-23T01:30:00.690Z,74.8
2023-01-23T01:35:00.648Z,74.7
2023-01-23T01:40:00.646Z,74.5
2023-01-23T01:45:00.607Z,74.7
2023-01-23T01:50:00.638Z,75.1
2023-01-23T01:55:00.647Z,74.5
2023-01-23T02:00:00.639Z,74.7
2023-01-23T02:05:00.635Z,74.8
2023-01-23T02:10:03.335Z,74.9
2023-01-23T02:15:00.612Z,74.8
2023-01-23T02:20:00.679Z,75.2
2023-01-23T02:25:00.641Z,76.1
2023-01-23T02:30:00.816Z,75.3
2023-01-23T02:35:00.612Z,75.0
2023-01-23T02:40:00.639Z,75.0
2023-01-23T02:45:00.660Z,75.1
2023-01-23T02:50:00.638Z,75.6
2023-01-23T02:55:00.619Z,75.7
2023-01-23T03:00:00.682Z,76.7
2023-01-23T03:05:00.611Z,76.3
2023-01-23T03:10:00.655Z,75.9
2023-01-23T03:15:00.671Z,75.3
2023-01-23T03:20:00.666Z,75.6
2023-01-23T03:25:00.617Z,76.2
2023-01-23T03:30:03.106Z,75.4
2023-01-23T03:35:00.657Z,76.2
2023-01-23T03:40:00.680Z,75.8
2023-01-23T03:45:00.659Z,76.2
2023-01-23T03:50:00.637Z,76.9
2023-01-23T03:55:00.643Z,76.2
2023-01-23T04:00:00.685Z,75.9
2023-01-23T04:05:00.653Z,75.5
2023-01-23T04:10:00.637Z,75.3
2023-01-23T04:15:00.614Z,75.7
2023-01-23T04:20:00.692Z,76.1
2023-01-23T04:25:00.613Z,75.5
2023-01-23T04:30:00.664Z,75.4
2023-01-23T04:35:00.643Z,74.7
2023-01-23T04:40:00.652Z,74.9
2023-01-23T04:45:00.634Z,74.9
2023-01-23T04:50:00.613Z,74.4
2023-01-23T04:55:00.743Z,74.4
2023-01-23T05:00:00.893Z,74.5
2023-01-23T05:05:00.693Z,76.0
2023-01-23T05:10:00.684Z,75.7
2023-01-23T05:15:00.618Z,75.7
2023-01-23T05:20:00.665Z,77.2
2023-01-23T05:25:00.663Z,76.5
2023-01-23T05:30:00.663Z,76.6
2023-01-23T05:35:00.625Z,76.0
2023-01-23T05:40:00.655Z,77.1
2023-01-23T05:45:00.614Z,78.1
2023-01-23T05:50:00.645Z,77.3
2023-01-23T05:55:02.646Z,76.6
2023-01-23T06:00:00.692Z,76.8
2023-01-23T06:05:00.633Z,76.6
2023-01-23T06:10:00.655Z,76.0
2023-01-23T06:15:00.626Z,76.3
2023-01-23T06:20:00.675Z,76.0
2023-01-23T06:25:00.642Z,76.2
2023-01-23T06:30:00.704Z,76.3
2023-01-23T06:35:00.650Z,76.7
2023-01-23T06:40:00.674Z,76.1
2023-01-23T06:45:00.637Z,76.1
2023-01-23T06:50:00.639Z,75.9
2023-01-23T06:55:00.635Z,76.0
2023-01-23T07:00:00.924Z,76.7
2023-01-23T07:05:00.651Z,76.8
2023-01-23T07:10:00.662Z,77.1
2023-01-23T07:15:00.616Z,76.1
2023-01-23T07:20:00.665Z,77.9
2023-01-23T07:25:00.613Z,77.8
2023-01-23T07:30:00.668Z,77.2
2023-01-23T07:35:00.866Z,79.1
2023-01-23T07:40:00.676Z,78.4
2023-01-23T07:45:00.624Z,77.8
2023-01-23T07:50:03.086Z,77.8
2023-01-23T07:55:00.655Z,77.2
2023-01-23T08:00:00.620Z,76.8
2023-01-23T08:05:00.875Z,77.0
2023-01-23T08:10:00.655Z,76.4
2023-01-23T08:15:00.656Z,76.7
2023-01-23T08:20:00.693Z,76.1
2023-01-23T08:25:00.649Z,75.6
2023-01-23T08:30:00.646Z,76.2
2023-01-23T08:35:00.637Z,75.7
2023-01-23T08:40:00.651Z,75.9
2023-01-23T08:45:00.654Z,75.8
2023-01-23T08:50:00.680Z,76.1
2023-01-23T08:55:00.663Z,75.9
2023-01-23T09:00:00.642Z,75.7
2023-01-23T09:05:00.673Z,78.4
2023-01-23T09:10:00.665Z,76.5
2023-01-23T09:15:00.653Z,75.8
2023-01-23T09:20:00.663Z,75.4
2023-01-23T09:25:00.637Z,76.7
2023-01-23T09:30:00.658Z,76.7
2023-01-23T09:35:00.633Z,77.3
2023-01-23T09:40:03.176Z,77.0
2023-01-23T09:45:00.626Z,76.8
2023-01-23T09:50:00.668Z,76.6
2023-01-23T09:55:00.674Z,77.4
2023-01-23T10:00:01.092Z,76.1
2023-01-23T10:05:00.663Z,76.5
2023-01-23T10:10:00.755Z,76.5
2023-01-23T10:15:00.656Z,75.8
2023-01-23T10:20:00.650Z,76.2
2023-01-23T10:25:00.646Z,76.0
2023-01-23T10:30:00.651Z,76.3
2023-01-23T10:35:00.838Z,75.6
2023-01-23T10:40:00.663Z,75.2
2023-01-23T10:45:00.652Z,74.5
2023-01-23T10:50:00.684Z,75.2
2023-01-23T10:55:00.676Z,75.2
2023-01-23T11:00:00.628Z,74.6
2023-01-23T11:05:00.671Z,74.3
2023-01-23T11:10:00.652Z,73.5
2023-01-23T11:15:00.646Z,73.7
2023-01-23T11:20:00.674Z,72.4
2023-01-23T11:25:00.689Z,72.5
2023-01-23T11:30:00.617Z,72.9
2023-01-23T11:35:03.215Z,72.3
2023-01-23T11:40:00.670Z,72.7
2023-01-23T11:45:00.629Z,72.4
2023-01-23T11:50:00.666Z,71.7
2023-01-23T11:55:00.619Z,71.8
2023-01-23T12:00:00.647Z,71.4
2023-01-23T12:05:00.639Z,71.4
2023-01-23T12:10:00.671Z,71.5
2023-01-23T12:15:00.617Z,71.5
2023-01-23T12:20:00.656Z,70.9
2023-01-23T12:25:00.667Z,71.1
2023-01-23T12:30:00.662Z,71.2
2023-01-23T12:35:00.669Z,70.5
2023-01-23T12:40:00.646Z,70.4
2023-01-23T12:45:00.657Z,70.1
2023-01-23T12:50:00.610Z,70.6
2023-01-23T12:55:00.651Z,72.6
2023-01-23T13:00:00.690Z,71.5
2023-01-23T13:05:00.658Z,72.1
2023-01-23T13:10:00.621Z,71.4
2023-01-23T13:15:13.455Z,72.9
2023-01-23T13:20:00.669Z,71.7
2023-01-23T13:25:00.657Z,70.9
2023-01-23T13:30:00.624Z,72.7
2023-01-23T13:35:03.159Z,72.1
2023-01-23T13:40:06.248Z,71.5
2023-01-23T13:45:00.644Z,71.6
2023-01-23T14:25:00.731Z,73.0
2023-01-23T14:30:00.648Z,72.6
2023-01-23T14:35:00.660Z,72.0
2023-01-23T14:40:09.880Z,72.3
2023-01-23T14:45:00.669Z,72.9
2023-01-23T14:50:00.618Z,73.3
2023-01-23T14:55:07.907Z,72.7
2023-01-23T15:00:00.720Z,72.4
2023-01-23T15:05:00.677Z,73.3
2023-01-23T15:10:00.612Z,72.0
2023-01-23T15:15:00.767Z,71.6
2023-01-23T15:20:00.668Z,72.8
2023-01-23T15:25:00.654Z,72.9
2023-01-23T15:30:00.628Z,73.8
2023-01-23T15:35:00.681Z,74.5
2023-01-23T15:40:00.635Z,73.8
2023-01-23T15:45:00.663Z,74.2
2023-01-23T15:50:00.663Z,72.7
2023-01-23T15:55:03.144Z,73.5
2023-01-23T16:00:00.627Z,74.4
2023-01-23T16:05:00.670Z,74.0
2023-01-23T16:10:00.660Z,74.4
2023-01-23T16:15:00.653Z,74.3
2023-01-23T16:20:00.604Z,74.2
2023-01-23T16:25:00.673Z,74.4
2023-01-23T16:30:00.619Z,74.0
2023-01-23T16:35:00.647Z,74.4
2023-01-23T16:40:00.701Z,73.4
2023-01-23T16:45:00.666Z,73.1
2023-01-23T16:50:00.644Z,73.2
2023-01-23T16:55:00.672Z,74.0
2023-01-23T17:00:00.667Z,74.2
2023-01-23T17:05:00.680Z,73.6
2023-01-23T17:10:00.661Z,74.2
2023-01-23T17:15:00.781Z,74.7
2023-01-23T17:20:00.650Z,74.8
2023-01-23T17:25:00.639Z,75.1
2023-01-23T17:30:00.682Z,73.9
2023-01-23T17:35:02.736Z,73.4
2023-01-23T17:40:00.709Z,72.9
2023-01-23T17:45:00.681Z,73.4
2023-01-23T17:50:00.678Z,74.1
2023-01-23T17:55:00.629Z,74.3
2023-01-23T18:00:01.041Z,73.0
2023-01-23T18:05:00.634Z,74.8
2023-01-23T18:10:00.645Z,71.7
2023-01-23T18:15:00.665Z,72.2
2023-01-23T18:20:00.646Z,72.0
2023-01-23T18:25:00.646Z,73.4
2023-01-23T18:30:00.658Z,73.1
2023-01-23T18:35:00.661Z,72.7
2023-01-23T18:40:00.704Z,73.7
2023-01-23T18:45:00.620Z,73.2
2023-01-23T18:50:00.849Z,73.2
2023-01-23T18:55:00.621Z,73.2
2023-01-23T19:00:01.218Z,73.7
2023-01-23T19:05:00.650Z,73.9
2023-01-23T19:10:00.823Z,74.8
2023-01-23T19:15:00.635Z,75.0
2023-01-23T19:20:00.669Z,75.1
2023-01-23T19:25:00.661Z,74.9
2023-01-23T19:30:00.686Z,75.1
2023-01-23T19:35:13.435Z,74.5
2023-01-23T19:40:00.650Z,74.2
2023-01-23T19:45:00.689Z,74.7
2023-01-23T19:50:00.633Z,74.5
2023-01-23T19:55:00.670Z,75.2
2023-01-23T20:00:02.790Z,75.2
2023-01-23T20:05:00.649Z,74.1
2023-01-23T20:10:00.608Z,75.3
2023-01-23T20:15:00.707Z,74.4
2023-01-23T20:20:00.618Z,74.0
2023-01-23T20:25:00.672Z,75.4
2023-01-23T20:30:00.659Z,74.6
2023-01-23T20:35:00.664Z,74.4
2023-01-23T20:40:00.632Z,74.6
2023-01-23T20:45:00.712Z,73.8
2023-01-23T20:50:00.621Z,73.4
2023-01-23T20:55:00.676Z,73.4
2023-01-23T21:00:00.752Z,75.3
2023-01-23T21:05:00.642Z,72.9
2023-01-23T21:10:00.630Z,72.4
2023-01-23T21:15:00.659Z,72.7
2023-01-23T21:20:00.642Z,72.8
2023-01-23T21:25:00.673Z,73.4
2023-01-23T21:30:00.682Z,73.3
2023-01-23T21:35:00.657Z,74.6
2023-01-23T21:40:00.648Z,73.5
2023-01-23T21:45:00.707Z,74.0
2023-01-23T21:50:00.727Z,74.0
2023-01-23T21:55:00.636Z,74.3
2023-01-23T22:00:00.696Z,74.5
2023-01-23T22:05:00.764Z,74.0
2023-01-23T22:10:00.699Z,74.2
2023-01-23T22:15:02.775Z,73.6
2023-01-23T22:20:00.679Z,73.6
2023-01-23T22:25:00.623Z,74.4
2023-01-23T22:30:00.704Z,73.2
2023-01-23T22:35:00.613Z,73.7
2023-01-23T22:40:00.651Z,73.9
2023-01-23T22:45:00.651Z,73.3
2023-01-23T22:50:00.691Z,75.2
2023-01-23T22:55:00.652Z,74.4
2023-01-23T23:00:00.719Z,73.9
2023-01-23T23:05:00.652Z,74.0
2023-01-23T23:10:00.654Z,74.6
2023-01-23T23:15:00.661Z,74.4
2023-01-23T23:20:00.633Z,74.0
2023-01-23T23:25:00.669Z,74.3
2023-01-23T23:30:00.655Z,74.3
2023-01-23T23:35:00.613Z,74.2
2023-01-23T23:40:00.702Z,74.4
2023-01-23T23:45:00.625Z,74.4
2023-01-23T23:50:00.656Z,74.0
2023-01-23T23:55:00.662Z,73.9
